createdAt,value
2018-06-18T00:02:40.995Z,7.27
2018-06-18T00:06:45.380Z,7.30
2018-06-18T00:10:49.694Z,7.70
2018-06-18T00:14:53.931Z,6.93
2018-06-18T00:18:58.151Z,6.93
2018-06-18T00:23:02.474Z,8.33
2018-06-18T00:27:06.731Z,7.03
2018-06-18T00:31:10.999Z,7.67
2018-06-18T00:35:14.959Z,6.47
2018-06-18T00:39:19.123Z,7.83
2018-06-18T00:43:24.650Z,7.27
2018-06-18T00:47:28.870Z,6.03
2018-06-18T00:51:33.373Z,7.03
2018-06-18T00:55:48.651Z,6.90
2018-06-18T00:59:52.852Z,6.07
2018-06-18T01:03:57.207Z,7.83
2018-06-18T01:08:01.419Z,6.80
2018-06-18T01:12:05.812Z,7.20
2018-06-18T01:16:10.109Z,5.40
2018-06-18T01:20:14.558Z,5.87
2018-06-18T01:24:45.348Z,5.10
2018-06-18T01:28:49.675Z,4.37
2018-06-18T01:32:53.900Z,5.23
2018-06-18T01:36:58.238Z,5.47
2018-06-18T01:41:02.484Z,5.50
2018-06-18T01:45:06.850Z,4.30
2018-06-18T01:49:11.109Z,5.43
2018-06-18T01:53:15.467Z,5.20
2018-06-18T01:57:19.689Z,4.80
2018-06-18T02:01:23.988Z,6.00
2018-06-18T02:05:28.332Z,4.53
2018-06-18T02:09:32.568Z,5.87
2018-06-18T02:13:36.913Z,5.50
2018-06-18T02:17:41.401Z,5.30
2018-06-18T02:21:45.761Z,4.10
2018-06-18T02:25:49.978Z,5.27
2018-06-18T02:29:59.278Z,5.37
2018-06-18T02:34:08.905Z,5.53
2018-06-18T02:38:18.441Z,5.10
2018-06-18T02:42:22.680Z,5.30
2018-06-18T02:46:26.983Z,4.67
2018-06-18T02:50:31.179Z,5.30
2018-06-18T02:54:35.476Z,5.00
2018-06-18T02:58:39.761Z,5.30
2018-06-18T03:02:44.119Z,5.50
2018-06-18T03:06:48.380Z,5.20
2018-06-18T03:10:52.915Z,4.20
2018-06-18T03:14:57.134Z,4.90
2018-06-18T03:19:06.719Z,5.33
2018-06-18T03:23:16.180Z,6.27
2018-06-18T03:27:25.699Z,4.47
2018-06-18T03:31:29.944Z,4.50
2018-06-18T03:35:34.440Z,5.63
2018-06-18T03:39:38.672Z,5.27
2018-06-18T03:43:47.566Z,4.73
2018-06-18T03:47:51.898Z,4.53
2018-06-18T03:51:56.257Z,6.00
2018-06-18T03:56:01.458Z,5.70
2018-06-18T04:00:09.148Z,5.03
2018-06-18T04:04:18.878Z,5.93
2018-06-18T04:08:23.172Z,5.73
2018-06-18T04:12:27.574Z,5.50
2018-06-18T04:16:31.775Z,4.90
2018-06-18T04:20:40.571Z,4.80
2018-06-18T04:24:45.035Z,4.30
2018-06-18T04:28:49.866Z,4.93
2018-06-18T04:32:55.154Z,4.73
2018-06-18T04:36:59.901Z,4.60
2018-06-18T04:41:04.237Z,4.83
2018-06-18T04:45:13.663Z,3.50
2018-06-18T04:50:26.988Z,3.87
2018-06-18T04:54:31.196Z,4.70
2018-06-18T04:58:35.584Z,3.40
2018-06-18T05:02:39.854Z,3.97
2018-06-18T05:06:44.220Z,3.73
2018-06-18T05:10:48.427Z,2.60
2018-06-18T05:14:53.165Z,3.63
2018-06-18T05:18:57.393Z,3.53
2018-06-18T05:23:01.744Z,2.93
2018-06-18T05:27:07.518Z,3.03
2018-06-18T05:31:11.731Z,3.50
2018-06-18T05:35:16.392Z,3.37
2018-06-18T05:39:20.646Z,3.40
2018-06-18T05:43:24.881Z,3.30
2018-06-18T05:47:29.228Z,3.20
2018-06-18T05:51:33.442Z,3.17
2018-06-18T05:55:38.094Z,3.47
2018-06-18T05:59:42.714Z,3.43
2018-06-18T06:03:47.154Z,2.73
2018-06-18T06:07:51.613Z,3.43
2018-06-18T06:11:55.936Z,2.87
2018-06-18T06:16:00.776Z,2.43
2018-06-18T06:20:05.451Z,3.03
2018-06-18T06:24:09.651Z,2.70
2018-06-18T06:28:14.180Z,2.43
2018-06-18T06:32:18.453Z,2.90
2018-06-18T06:36:25.517Z,2.93
2018-06-18T06:40:29.736Z,3.10
2018-06-18T06:44:34.157Z,2.80
2018-06-18T06:48:39.013Z,2.60
2018-06-18T06:52:43.314Z,2.00
2018-06-18T06:56:47.860Z,2.70
2018-06-18T07:00:52.047Z,2.17
2018-06-18T07:04:56.656Z,2.37
2018-06-18T07:09:01.422Z,2.57
2018-06-18T07:13:06.120Z,2.30
2018-06-18T07:17:10.407Z,2.10
2018-06-18T07:21:14.860Z,2.77
2018-06-18T07:25:19.435Z,1.90
2018-06-18T07:29:23.713Z,2.17
2018-06-18T07:33:28.190Z,2.13
2018-06-18T07:37:32.506Z,3.73
2018-06-18T07:41:36.931Z,2.50
2018-06-18T07:45:41.428Z,3.10
2018-06-18T07:49:45.769Z,3.43
2018-06-18T07:53:50.497Z,1.90
2018-06-18T07:57:55.055Z,2.37
2018-06-18T08:01:59.869Z,1.83
2018-06-18T08:06:04.462Z,1.93
2018-06-18T08:10:08.751Z,2.20
2018-06-18T08:14:13.082Z,2.00
2018-06-18T08:18:17.379Z,3.23
2018-06-18T08:22:21.909Z,2.13
2018-06-18T08:26:26.171Z,1.93
2018-06-18T08:30:30.844Z,2.83
2018-06-18T08:34:35.079Z,2.30
2018-06-18T08:38:39.291Z,2.53
2018-06-18T08:42:43.484Z,2.73
2018-06-18T08:46:47.849Z,2.30
2018-06-18T08:50:57.887Z,1.50
2018-06-18T08:55:07.346Z,2.93
2018-06-18T08:59:17.181Z,1.60
2018-06-18T09:03:24.159Z,2.60
2018-06-18T09:07:32.037Z,2.50
2018-06-18T09:11:36.899Z,3.20
2018-06-18T09:15:41.265Z,1.97
2018-06-18T09:19:45.581Z,4.70
2018-06-18T09:23:50.099Z,2.13
2018-06-18T09:27:54.967Z,3.40
2018-06-18T09:31:59.321Z,2.63
2018-06-18T09:36:03.964Z,3.33
2018-06-18T09:40:08.285Z,1.97
2018-06-18T09:44:12.678Z,2.20
2018-06-18T09:48:17.006Z,1.50
2018-06-18T09:52:26.000Z,1.63
2018-06-18T09:56:35.737Z,1.73
2018-06-18T10:00:55.179Z,1.60
2018-06-18T10:05:00.539Z,2.00
2018-06-18T10:09:07.422Z,2.07
2018-06-18T10:13:11.881Z,3.00
2018-06-18T10:17:16.442Z,2.47
2018-06-18T10:21:20.719Z,2.00
2018-06-18T10:25:25.074Z,1.50
2018-06-18T10:29:29.405Z,2.27
2018-06-18T10:33:38.862Z,2.20
2018-06-18T10:37:48.516Z,1.50
2018-06-18T10:41:58.053Z,1.80
2018-06-18T10:46:02.507Z,1.60
2018-06-18T10:50:06.745Z,1.90
2018-06-18T10:54:11.312Z,1.80
2018-06-18T10:58:15.805Z,1.57
2018-06-18T11:02:20.279Z,2.37
2018-06-18T11:06:32.890Z,1.60
2018-06-18T11:10:38.895Z,1.43
2018-06-18T11:14:43.423Z,1.87
2018-06-18T11:18:53.292Z,2.07
2018-06-18T11:23:02.915Z,1.60
2018-06-18T11:27:07.177Z,2.70
2018-06-18T11:31:11.539Z,1.70
2018-06-18T11:35:17.292Z,1.50
2018-06-18T11:39:21.643Z,1.37
2018-06-18T11:43:26.275Z,3.33
2018-06-18T11:47:31.116Z,1.70
2018-06-18T11:51:35.702Z,1.60
2018-06-18T11:55:39.699Z,2.30
2018-06-18T11:59:49.579Z,3.37
2018-06-18T12:03:58.699Z,1.60
2018-06-18T12:08:09.293Z,2.03
2018-06-18T12:12:14.056Z,2.00
2018-06-18T12:16:23.892Z,2.33
2018-06-18T12:20:28.283Z,2.00
2018-06-18T12:24:32.970Z,3.13
2018-06-18T12:28:43.795Z,1.67
2018-06-18T12:32:49.328Z,1.40
2018-06-18T12:36:55.230Z,2.57
2018-06-18T12:40:59.843Z,1.90
2018-06-18T12:45:09.538Z,1.60
2018-06-18T12:49:20.362Z,1.40
2018-06-18T12:54:31.345Z,2.20
2018-06-18T12:58:36.203Z,2.23
2018-06-18T13:02:44.880Z,2.67
2018-06-18T13:06:49.162Z,2.30
2018-06-18T13:10:53.424Z,2.00
2018-06-18T13:14:57.708Z,2.00
2018-06-18T13:19:02.428Z,1.40
2018-06-18T13:23:07.498Z,1.57
2018-06-18T13:27:12.502Z,1.63
2018-06-18T13:31:18.974Z,2.53
2018-06-18T13:35:25.171Z,1.60
2018-06-18T13:39:34.699Z,1.70
2018-06-18T13:43:44.904Z,2.27
2018-06-18T13:47:54.608Z,1.60
2018-06-18T13:51:58.946Z,1.73
2018-06-18T13:56:03.673Z,1.80
2018-06-18T14:00:09.324Z,1.57
2018-06-18T14:04:14.100Z,1.70
2018-06-18T14:08:18.572Z,1.40
2018-06-18T14:12:23.077Z,1.70
2018-06-18T14:16:27.832Z,1.40
2018-06-18T14:20:32.736Z,1.93
2018-06-18T14:24:37.339Z,1.47
2018-06-18T14:28:41.616Z,1.53
2018-06-18T14:32:51.445Z,2.20
2018-06-18T14:37:01.192Z,1.83
2018-06-18T14:41:05.625Z,1.70
2018-06-18T14:45:10.640Z,1.93
2018-06-18T14:49:15.463Z,1.30
2018-06-18T14:53:20.068Z,1.67
2018-06-18T14:57:24.724Z,2.30
2018-06-18T15:01:29.202Z,2.17
2018-06-18T15:05:35.646Z,1.60
2018-06-18T15:09:40.096Z,2.23
2018-06-18T15:13:44.937Z,1.67
2018-06-18T15:17:49.680Z,1.63
2018-06-18T15:21:57.074Z,2.57
2018-06-18T15:26:01.833Z,2.27
2018-06-18T15:30:06.370Z,5.10
2018-06-18T15:34:10.989Z,2.00
2018-06-18T15:38:15.531Z,1.97
2018-06-18T15:42:20.273Z,1.67
2018-06-18T15:46:25.074Z,4.70
2018-06-18T15:50:29.671Z,2.37
2018-06-18T15:54:35.137Z,3.40
2018-06-18T15:58:39.465Z,2.07
2018-06-18T16:02:44.273Z,2.03
2018-06-18T16:06:48.809Z,2.50
2018-06-18T16:10:53.279Z,1.70
2018-06-18T16:14:57.838Z,1.70
2018-06-18T16:19:02.146Z,1.90
2018-06-18T16:23:07.216Z,2.63
2018-06-18T16:27:11.501Z,1.37
2018-06-18T16:31:16.994Z,1.57
2018-06-18T16:35:21.394Z,1.80
2018-06-18T16:39:25.816Z,1.70
2018-06-18T16:43:30.148Z,2.07
2018-06-18T16:47:34.515Z,2.07
2018-06-18T16:51:39.259Z,2.00
2018-06-18T16:55:43.607Z,2.90
2018-06-18T16:59:48.201Z,2.43
2018-06-18T17:03:53.623Z,2.07
2018-06-18T17:07:57.981Z,2.27
2018-06-18T17:12:03.009Z,1.80
2018-06-18T17:16:07.522Z,2.30
2018-06-18T17:20:12.841Z,3.40
2018-06-18T17:24:17.477Z,2.00
2018-06-18T17:28:22.552Z,2.00
2018-06-18T17:32:28.157Z,1.90
2018-06-18T17:36:32.526Z,1.30
2018-06-18T17:40:37.923Z,2.03
2018-06-18T17:44:42.698Z,2.57
2018-06-18T17:48:47.368Z,1.70
2018-06-18T17:52:52.116Z,2.20
2018-06-18T17:56:57.436Z,2.03
2018-06-18T18:01:01.787Z,1.57
2018-06-18T18:05:07.777Z,2.20
2018-06-18T18:09:13.768Z,1.47
2018-06-18T18:13:19.304Z,2.43
2018-06-18T18:17:25.476Z,1.50
2018-06-18T18:21:31.094Z,1.67
2018-06-18T18:25:35.900Z,2.93
2018-06-18T18:29:40.733Z,1.73
2018-06-18T18:33:47.082Z,1.30
2018-06-18T18:37:51.792Z,1.50
2018-06-18T18:41:58.365Z,1.40
2018-06-18T18:46:03.263Z,1.40
2018-06-18T18:50:09.813Z,1.47
2018-06-18T18:54:31.058Z,1.70
2018-06-18T18:59:42.540Z,2.57
2018-06-18T19:03:49.631Z,2.70
2018-06-18T19:07:54.426Z,2.23
2018-06-18T19:12:00.305Z,1.60
2018-06-18T19:16:04.961Z,3.33
2018-06-18T19:20:13.994Z,1.83
2018-06-18T19:24:19.526Z,3.60
2018-06-18T19:28:24.146Z,1.60
2018-06-18T19:32:29.196Z,1.73
2018-06-18T19:36:34.471Z,1.77
2018-06-18T19:40:39.400Z,1.80
2018-06-18T19:44:45.149Z,1.87
2018-06-18T19:48:57.122Z,1.60
2018-06-18T19:53:01.516Z,2.23
2018-06-18T19:57:06.281Z,2.20
2018-06-18T20:01:12.015Z,1.40
2018-06-18T20:05:16.649Z,2.00
2018-06-18T20:09:21.754Z,4.90
2018-06-18T20:13:27.391Z,2.20
2018-06-18T20:17:35.607Z,6.13
2018-06-18T20:21:43.601Z,2.33
2018-06-18T20:26:07.288Z,1.70
2018-06-18T20:30:13.270Z,2.50
2018-06-18T20:34:19.439Z,2.00
2018-06-18T20:38:24.008Z,2.03
2018-06-18T20:42:28.655Z,2.60
2018-06-18T20:46:33.417Z,4.40
2018-06-18T20:50:38.087Z,2.77
2018-06-18T20:54:42.867Z,4.70
2018-06-18T20:58:48.272Z,2.50
2018-06-18T21:02:53.934Z,3.37
2018-06-18T21:06:58.556Z,6.13
2018-06-18T21:11:04.654Z,2.90
2018-06-18T21:15:08.491Z,2.83
2018-06-18T21:19:12.993Z,4.53
2018-06-18T21:23:18.833Z,3.87
2018-06-18T21:27:23.693Z,4.37
2018-06-18T21:31:28.764Z,3.73
2018-06-18T21:35:32.476Z,3.93
2018-06-18T21:39:36.660Z,3.37
2018-06-18T21:43:41.864Z,4.00
2018-06-18T21:47:46.697Z,9.50
2018-06-18T21:51:52.567Z,4.60
2018-06-18T21:55:57.273Z,3.63
2018-06-18T22:00:02.631Z,3.50
2018-06-18T22:04:08.019Z,5.40
2018-06-18T22:08:14.132Z,4.70
2018-06-18T22:12:18.887Z,5.30
2018-06-18T22:16:23.642Z,7.23
2018-06-18T22:20:28.480Z,3.27
2018-06-18T22:24:32.777Z,3.93
2018-06-18T22:28:40.369Z,4.80
2018-06-18T22:32:44.882Z,4.57
2018-06-18T22:36:49.811Z,6.10
2018-06-18T22:40:54.346Z,5.30
2018-06-18T22:44:59.759Z,3.60
2018-06-18T22:49:05.050Z,3.30
2018-06-18T22:53:10.381Z,3.93
2018-06-18T22:57:15.487Z,3.50
2018-06-18T23:01:20.260Z,3.80
2018-06-18T23:05:27.552Z,2.97
2018-06-18T23:09:33.059Z,3.67
2018-06-18T23:13:38.134Z,3.90
2018-06-18T23:17:43.031Z,4.13
2018-06-18T23:21:47.786Z,3.83
2018-06-18T23:25:53.453Z,3.43
2018-06-18T23:29:58.045Z,5.50
2018-06-18T23:34:03.429Z,3.40
2018-06-18T23:38:08.584Z,4.03
2018-06-18T23:42:13.263Z,2.97
2018-06-18T23:46:18.035Z,4.10
2018-06-18T23:50:22.736Z,5.97
2018-06-18T23:54:28.079Z,3.70
2018-06-18T23:58:32.551Z,4.17
